createdAt,value
2022-09-27T00:03:02.590Z,0.40
2022-09-27T00:08:05.170Z,0.33
2022-09-27T00:13:07.340Z,0.65
2022-09-27T00:18:09.907Z,0.50
2022-09-27T00:23:12.092Z,0.50
2022-09-27T00:28:14.367Z,0.28
2022-09-27T00:33:16.664Z,0.55
2022-09-27T00:38:18.951Z,0.15
2022-09-27T00:43:23.705Z,0.73
2022-09-27T00:48:31.349Z,0.60
2022-09-27T00:53:49.175Z,0.20
2022-09-27T00:59:15.663Z,0.30
2022-09-27T01:04:28.715Z,0.50
2022-09-27T01:09:31.382Z,0.88
2022-09-27T01:15:12.154Z,0.43
2022-09-27T01:20:38.788Z,0.20
2022-09-27T01:25:49.863Z,0.60
2022-09-27T01:31:25.287Z,0.68
2022-09-27T01:37:05.083Z,0.67
2022-09-27T01:42:47.301Z,0.73
2022-09-27T01:47:57.337Z,1.10
2022-09-27T01:53:23.102Z,0.80
2022-09-27T01:58:44.340Z,0.90
2022-09-27T02:03:50.565Z,0.43
2022-09-27T02:09:08.098Z,0.50
2022-09-27T02:14:40.228Z,0.73
2022-09-27T02:19:51.715Z,1.40
2022-09-27T02:25:00.922Z,1.03
2022-09-27T02:30:11.806Z,1.40
2022-09-27T02:35:27.889Z,0.90
2022-09-27T02:40:33.262Z,0.73
2022-09-27T02:45:58.311Z,0.70
2022-09-27T02:51:37.378Z,0.60
2022-09-27T02:56:58.673Z,1.30
2022-09-27T03:02:19.520Z,0.67
2022-09-27T03:07:23.187Z,0.83
2022-09-27T03:12:26.278Z,0.70
2022-09-27T03:17:29.009Z,0.50
2022-09-27T03:22:35.418Z,0.47
2022-09-27T03:32:46.126Z,0.50
2022-09-27T03:37:55.832Z,1.27
2022-09-27T03:42:58.013Z,0.62
2022-09-27T03:48:00.767Z,1.08
2022-09-27T03:53:03.252Z,0.80
2022-09-27T03:58:05.709Z,0.43
2022-09-27T04:08:13.856Z,0.50
2022-09-27T04:13:16.356Z,0.30
2022-09-27T04:18:18.970Z,0.65
2022-09-27T04:23:29.068Z,0.60
2022-09-27T04:28:33.282Z,0.80
2022-09-27T04:33:35.707Z,0.30
2022-09-27T04:43:42.018Z,0.40
2022-09-27T04:48:44.226Z,0.62
2022-09-27T04:53:47.141Z,0.65
2022-09-27T04:58:49.419Z,0.30
2022-09-27T05:03:51.857Z,0.73
2022-09-27T05:08:54.063Z,0.47
2022-09-27T05:13:57.055Z,0.30
2022-09-27T05:18:59.750Z,1.35
2022-09-27T05:24:09.673Z,0.30
2022-09-27T05:29:11.796Z,0.30
2022-09-27T05:34:15.485Z,0.40
2022-09-27T05:39:18.919Z,0.30
2022-09-27T05:44:22.023Z,0.40
2022-09-27T05:49:25.081Z,0.83
2022-09-27T05:54:29.465Z,0.40
2022-09-27T05:59:32.219Z,0.60
2022-09-27T06:04:38.375Z,0.20
2022-09-27T06:09:44.106Z,0.20
2022-09-27T06:14:48.011Z,0.70
2022-09-27T06:19:50.209Z,0.33
2022-09-27T06:24:52.350Z,0.50
2022-09-27T06:29:55.862Z,0.20
2022-09-27T06:35:00.460Z,0.20
2022-09-27T06:40:03.617Z,0.20
2022-09-27T06:45:08.560Z,0.50
2022-09-27T06:50:16.768Z,0.37
2022-09-27T06:55:19.182Z,0.40
2022-09-27T07:00:24.548Z,0.43
2022-09-27T07:05:34.606Z,0.30
2022-09-27T07:10:37.589Z,0.40
2022-09-27T07:15:41.550Z,0.40
2022-09-27T07:20:46.085Z,0.50
2022-09-27T07:25:48.415Z,0.15
2022-09-27T07:30:55.687Z,0.40
2022-09-27T07:35:58.607Z,0.40
2022-09-27T07:46:11.138Z,0.37
2022-09-27T07:56:15.915Z,0.30
2022-09-27T08:01:18.729Z,0.50
2022-09-27T08:06:20.965Z,0.20
2022-09-27T08:11:23.688Z,0.40
2022-09-27T08:16:26.097Z,0.20
2022-09-27T08:21:34.844Z,0.40
2022-09-27T08:26:37.629Z,0.50
2022-09-27T08:31:40.041Z,0.30
2022-09-27T08:36:43.772Z,0.95
2022-09-27T08:42:17.590Z,0.95
2022-09-27T08:47:34.872Z,0.53
2022-09-27T08:52:41.404Z,0.50
2022-09-27T08:57:48.313Z,0.88
2022-09-27T09:02:50.729Z,0.40
2022-09-27T09:08:21.960Z,0.85
2022-09-27T09:13:39.561Z,0.68
2022-09-27T09:19:05.960Z,0.82
2022-09-27T09:24:37.447Z,0.65
2022-09-27T09:30:10.918Z,1.02
2022-09-27T09:35:25.858Z,0.60
2022-09-27T09:40:31.272Z,0.82
2022-09-27T09:45:55.676Z,1.12
2022-09-27T09:51:01.429Z,0.75
2022-09-27T09:56:10.584Z,0.60
2022-09-27T10:01:41.213Z,0.57
2022-09-27T10:06:43.813Z,0.82
2022-09-27T10:11:48.094Z,0.73
2022-09-27T10:16:58.462Z,1.08
2022-09-27T10:22:18.656Z,0.80
2022-09-27T10:27:21.683Z,0.90
2022-09-27T10:32:36.153Z,1.02
2022-09-27T10:37:43.232Z,0.98
2022-09-27T10:42:45.792Z,0.90
2022-09-27T10:47:48.519Z,0.82
2022-09-27T10:53:04.535Z,1.90
2022-09-27T10:58:08.137Z,1.37
2022-09-27T11:03:16.312Z,0.93
2022-09-27T11:08:19.974Z,1.05
2022-09-27T11:13:22.585Z,0.80
2022-09-27T11:18:47.086Z,1.12
2022-09-27T11:24:20.443Z,0.60
2022-09-27T11:29:36.087Z,0.40
2022-09-27T11:34:54.007Z,0.50
2022-09-27T11:40:09.288Z,0.35
2022-09-27T11:51:04.963Z,0.45
2022-09-27T11:56:25.226Z,0.40
2022-09-27T12:01:51.205Z,0.50
2022-09-27T12:07:12.924Z,0.50
2022-09-27T12:12:23.589Z,0.62
2022-09-27T12:17:38.776Z,0.70
2022-09-27T12:22:58.997Z,0.77
2022-09-27T12:28:37.025Z,0.98
2022-09-27T12:33:45.764Z,0.77
2022-09-27T12:39:06.318Z,0.47
2022-09-27T12:44:13.779Z,0.50
2022-09-27T12:49:37.899Z,0.80
2022-09-27T12:55:02.309Z,0.77
2022-09-27T13:00:42.845Z,0.70
2022-09-27T13:06:19.709Z,0.60
2022-09-27T13:11:43.096Z,0.80
2022-09-27T13:16:47.624Z,1.65
2022-09-27T13:21:54.452Z,0.30
2022-09-27T13:27:01.031Z,0.30
2022-09-27T13:32:15.204Z,0.13
2022-09-27T13:37:56.570Z,0.20
2022-09-27T13:42:59.100Z,0.22
2022-09-27T13:48:15.347Z,0.17
2022-09-27T13:53:37.943Z,0.80
2022-09-27T13:58:50.961Z,0.10
2022-09-27T14:04:02.727Z,0.32
2022-09-27T14:09:14.613Z,0.73
2022-09-27T14:14:23.655Z,0.30
2022-09-27T14:19:28.857Z,0.10
2022-09-27T14:24:32.855Z,0.30
2022-09-27T14:29:46.454Z,0.60
2022-09-27T14:35:34.380Z,0.57
2022-09-27T14:40:45.819Z,0.82
2022-09-27T14:45:51.507Z,0.75
2022-09-27T14:51:05.006Z,1.00
2022-09-27T14:56:19.566Z,0.60
2022-09-27T15:01:21.734Z,0.62
2022-09-27T15:06:25.263Z,0.85
2022-09-27T15:11:29.824Z,0.57
2022-09-27T15:16:32.165Z,0.62
2022-09-27T15:21:36.861Z,0.55
2022-09-27T15:26:46.165Z,0.62
2022-09-27T15:32:03.454Z,0.32
2022-09-27T15:37:08.778Z,0.68
2022-09-27T15:42:14.319Z,0.45
2022-09-27T15:47:40.293Z,0.40
2022-09-27T15:52:45.588Z,0.25
2022-09-27T15:57:51.222Z,0.50
2022-09-27T16:02:53.883Z,3.92
2022-09-27T16:07:57.771Z,16.62
2022-09-27T16:12:59.842Z,9.63
2022-09-27T16:18:01.870Z,13.30
2022-09-27T16:23:04.531Z,2.07
2022-09-27T16:28:09.623Z,0.60
2022-09-27T16:33:11.732Z,0.70
2022-09-27T16:38:13.749Z,0.50
2022-09-27T16:43:16.492Z,0.60
2022-09-27T16:53:20.549Z,0.70
2022-09-27T16:58:22.597Z,0.83
2022-09-27T17:03:24.803Z,1.27
2022-09-27T17:08:26.849Z,0.80
2022-09-27T17:13:28.995Z,0.63
2022-09-27T17:18:31.057Z,0.45
2022-09-27T17:23:34.022Z,0.87
2022-09-27T17:28:36.705Z,0.40
2022-09-27T17:33:47.866Z,0.37
2022-09-27T17:38:51.487Z,0.40
2022-09-27T17:44:01.235Z,0.40
2022-09-27T17:49:22.762Z,0.60
2022-09-27T17:54:27.740Z,0.77
2022-09-27T17:59:29.914Z,0.80
2022-09-27T18:04:32.004Z,0.93
2022-09-27T18:09:34.133Z,0.50
2022-09-27T18:14:36.502Z,0.80
2022-09-27T18:19:39.059Z,0.88
2022-09-27T18:24:41.217Z,1.25
2022-09-27T18:29:43.364Z,0.82
2022-09-27T18:34:45.441Z,3.25
2022-09-27T18:39:47.494Z,1.83
2022-09-27T18:44:49.506Z,1.20
2022-09-27T18:49:51.521Z,0.83
2022-09-27T18:54:54.634Z,1.10
2022-09-27T18:59:56.641Z,1.43
2022-09-27T19:04:58.933Z,2.83
2022-09-27T19:10:01.719Z,2.78
2022-09-27T19:20:08.066Z,2.00
2022-09-27T19:25:10.234Z,2.33
2022-09-27T19:30:13.269Z,1.85
2022-09-27T19:35:15.363Z,2.07
2022-09-27T19:40:17.521Z,1.37
2022-09-27T19:45:20.529Z,0.88
2022-09-27T19:55:25.599Z,1.17
2022-09-27T20:00:27.634Z,0.87
2022-09-27T20:05:29.690Z,1.37
2022-09-27T20:10:31.738Z,1.40
2022-09-27T20:15:33.773Z,1.07
2022-09-27T20:20:36.992Z,1.10
2022-09-27T20:25:42.935Z,0.57
2022-09-27T20:30:59.060Z,1.00
2022-09-27T20:36:01.308Z,1.37
2022-09-27T20:41:03.896Z,1.05
2022-09-27T20:46:12.220Z,0.95
2022-09-27T20:51:14.753Z,1.53
2022-09-27T20:56:25.312Z,0.93
2022-09-27T21:01:28.943Z,0.60
2022-09-27T21:06:32.334Z,0.87
2022-09-27T21:11:34.894Z,1.10
2022-09-27T21:16:36.982Z,0.98
2022-09-27T21:21:39.035Z,1.37
2022-09-27T21:26:41.158Z,0.67
2022-09-27T21:31:43.423Z,1.37
2022-09-27T21:36:45.599Z,1.17
2022-09-27T21:41:47.607Z,0.93
2022-09-27T21:46:50.591Z,0.90
2022-09-27T21:51:52.858Z,0.80
2022-09-27T21:56:54.928Z,0.80
2022-09-27T22:01:57.016Z,0.93
2022-09-27T22:06:59.099Z,0.80
2022-09-27T22:12:01.510Z,0.80
2022-09-27T22:17:03.598Z,0.50
2022-09-27T22:22:05.633Z,0.40
2022-09-27T22:27:07.701Z,0.63
2022-09-27T22:32:09.739Z,0.80
2022-09-27T22:37:11.809Z,1.00
2022-09-27T22:42:14.015Z,0.60
2022-09-27T22:47:17.020Z,0.98
2022-09-27T22:52:19.046Z,0.80
2022-09-27T22:57:21.096Z,1.13
2022-09-27T23:02:23.160Z,0.77
2022-09-27T23:07:25.213Z,0.93
2022-09-27T23:12:27.209Z,1.17
2022-09-27T23:17:29.238Z,0.73
2022-09-27T23:22:34.670Z,0.83
2022-09-27T23:27:42.744Z,0.47
2022-09-27T23:32:51.353Z,0.70
2022-09-27T23:37:54.323Z,0.80
2022-09-27T23:53:02.246Z,1.20
2022-09-27T23:58:04.318Z,1.00
